createdAt,value
2019-01-24T00:01:49.971Z,99.15
2019-01-24T00:04:20.912Z,99.10
2019-01-24T00:06:51.820Z,99.04
2019-01-24T00:09:22.707Z,99.11
2019-01-24T00:11:53.659Z,99.21
2019-01-24T00:14:24.543Z,99.41
2019-01-24T00:16:55.552Z,99.40
2019-01-24T00:19:26.432Z,99.44
2019-01-24T00:21:57.274Z,99.59
2019-01-24T00:24:28.166Z,99.65
2019-01-24T00:26:59.094Z,99.57
2019-01-24T00:29:29.949Z,99.60
2019-01-24T00:32:00.863Z,99.65
2019-01-24T00:34:33.372Z,99.39
2019-01-24T00:37:04.410Z,99.28
2019-01-24T00:39:35.248Z,99.10
2019-01-24T00:42:06.257Z,98.95
2019-01-24T00:44:37.186Z,98.74
2019-01-24T00:47:08.018Z,98.53
2019-01-24T00:49:39.946Z,98.48
2019-01-24T00:52:10.882Z,98.56
2019-01-24T00:54:41.746Z,98.64
2019-01-24T00:57:15.576Z,98.68
2019-01-24T00:59:46.541Z,98.47
2019-01-24T01:02:17.462Z,98.26
2019-01-24T01:04:48.311Z,98.18
2019-01-24T01:07:19.249Z,98.06
2019-01-24T01:09:50.223Z,98.00
2019-01-24T01:12:21.074Z,98.05
2019-01-24T01:14:51.933Z,98.08
2019-01-24T01:17:22.804Z,98.04
2019-01-24T01:19:53.662Z,98.09
2019-01-24T01:22:24.594Z,98.12
2019-01-24T01:24:55.452Z,98.03
2019-01-24T01:27:26.356Z,97.85
2019-01-24T01:29:57.341Z,97.81
2019-01-24T01:32:28.173Z,97.83
2019-01-24T01:34:59.043Z,97.97
2019-01-24T01:37:29.881Z,97.67
2019-01-24T01:40:00.878Z,97.36
2019-01-24T01:42:31.732Z,97.14
2019-01-24T01:45:02.632Z,97.13
2019-01-24T01:47:33.535Z,96.88
2019-01-24T01:50:07.485Z,96.66
2019-01-24T01:52:38.335Z,96.59
2019-01-24T01:55:09.348Z,96.25
2019-01-24T01:57:40.269Z,96.04
2019-01-24T02:00:14.545Z,95.85
2019-01-24T02:02:45.383Z,95.71
2019-01-24T02:05:16.405Z,95.67
2019-01-24T02:07:47.332Z,95.53
2019-01-24T02:10:20.843Z,95.84
2019-01-24T02:12:51.849Z,96.08
2019-01-24T02:15:23.674Z,96.48
2019-01-24T02:17:54.525Z,96.76
2019-01-24T02:20:25.438Z,97.00
2019-01-24T02:22:56.278Z,97.13
2019-01-24T02:25:27.177Z,97.41
2019-01-24T02:27:58.048Z,97.65
2019-01-24T02:30:30.123Z,98.02
2019-01-24T02:33:01.063Z,98.58
2019-01-24T02:35:31.912Z,98.75
2019-01-24T02:38:02.864Z,98.62
2019-01-24T02:40:33.727Z,98.59
2019-01-24T02:43:04.734Z,98.27
2019-01-24T02:45:35.600Z,97.75
2019-01-24T02:48:06.501Z,97.39
2019-01-24T02:50:37.365Z,97.30
2019-01-24T02:53:08.327Z,96.91
2019-01-24T02:55:39.262Z,96.67
2019-01-24T02:58:10.125Z,96.73
2019-01-24T03:00:41.137Z,96.78
2019-01-24T03:03:12.093Z,96.89
2019-01-24T03:05:42.926Z,96.86
2019-01-24T03:08:13.798Z,96.72
2019-01-24T03:10:44.632Z,96.87
2019-01-24T03:13:15.502Z,96.65
2019-01-24T03:15:46.352Z,96.98
2019-01-24T03:18:18.102Z,96.99
2019-01-24T03:20:48.959Z,96.75
2019-01-24T03:23:19.821Z,96.63
2019-01-24T03:25:50.670Z,96.59
2019-01-24T03:28:21.564Z,96.46
2019-01-24T03:30:52.435Z,96.34
2019-01-24T03:33:23.332Z,96.40
2019-01-24T03:35:54.200Z,96.31
2019-01-24T03:38:25.049Z,96.27
2019-01-24T03:40:55.903Z,96.31
2019-01-24T03:43:26.758Z,96.15
2019-01-24T03:45:57.614Z,95.94
2019-01-24T03:48:28.524Z,95.96
2019-01-24T03:50:59.380Z,96.15
2019-01-24T03:53:30.240Z,96.30
2019-01-24T03:56:01.087Z,96.29
2019-01-24T03:58:32.100Z,96.49
2019-01-24T04:01:03.083Z,96.49
2019-01-24T04:03:34.107Z,96.61
2019-01-24T04:06:05.144Z,96.73
2019-01-24T04:08:35.985Z,96.74
2019-01-24T04:11:06.842Z,97.10
2019-01-24T04:13:37.709Z,97.14
2019-01-24T04:16:08.585Z,97.10
2019-01-24T04:18:39.433Z,97.14
2019-01-24T04:21:10.272Z,97.16
2019-01-24T04:23:41.181Z,97.08
2019-01-24T04:26:12.065Z,97.21
2019-01-24T04:28:42.884Z,97.16
2019-01-24T04:31:13.728Z,97.08
2019-01-24T04:33:44.624Z,96.52
2019-01-24T04:36:15.487Z,96.85
2019-01-24T04:38:46.356Z,96.93
2019-01-24T04:41:17.342Z,97.05
2019-01-24T04:43:48.180Z,96.99
2019-01-24T04:46:19.083Z,96.63
2019-01-24T04:48:49.976Z,96.86
2019-01-24T04:51:20.854Z,97.01
2019-01-24T04:53:51.736Z,97.01
2019-01-24T04:56:22.591Z,96.99
2019-01-24T04:58:53.464Z,96.95
2019-01-24T05:01:24.329Z,97.21
2019-01-24T05:03:55.199Z,97.57
2019-01-24T05:06:26.111Z,97.60
2019-01-24T05:08:56.969Z,97.75
2019-01-24T05:11:27.869Z,97.90
2019-01-24T05:13:58.709Z,98.04
2019-01-24T05:16:29.623Z,98.17
2019-01-24T05:19:00.467Z,98.40
2019-01-24T05:21:31.327Z,98.51
2019-01-24T05:24:02.197Z,98.57
2019-01-24T05:26:33.031Z,98.69
2019-01-24T05:29:04.042Z,98.87
2019-01-24T05:31:34.944Z,99.01
2019-01-24T05:34:05.892Z,99.16
2019-01-24T05:36:36.790Z,99.28
2019-01-24T05:39:08.273Z,99.33
2019-01-24T05:41:39.275Z,99.33
2019-01-24T05:44:10.115Z,99.32
2019-01-24T05:46:41.033Z,99.46
2019-01-24T05:49:11.889Z,99.65
2019-01-24T05:51:42.842Z,99.75
2019-01-24T05:54:13.680Z,99.81
2019-01-24T05:56:44.542Z,100.00
2019-01-24T05:59:15.409Z,100.00
2019-01-24T06:01:46.726Z,100.00
2019-01-24T06:04:17.625Z,100.00
2019-01-24T06:06:48.474Z,100.00
2019-01-24T06:09:19.338Z,100.00
2019-01-24T06:11:50.209Z,100.00
2019-01-24T06:14:21.119Z,100.00
2019-01-24T06:16:52.053Z,100.00
2019-01-24T06:19:22.989Z,100.00
2019-01-24T06:21:53.809Z,100.00
2019-01-24T06:24:24.765Z,100.00
2019-01-24T06:26:55.639Z,100.00
2019-01-24T06:29:26.515Z,100.00
2019-01-24T06:31:57.410Z,100.00
2019-01-24T06:34:28.378Z,100.00
2019-01-24T06:36:59.331Z,100.00
2019-01-24T06:39:30.199Z,100.00
2019-01-24T06:42:01.065Z,100.00
2019-01-24T06:44:33.460Z,100.00
2019-01-24T06:47:04.318Z,100.00
2019-01-24T06:49:35.214Z,100.00
2019-01-24T06:52:06.219Z,100.00
2019-01-24T06:54:37.182Z,100.00
2019-01-24T06:57:08.046Z,100.00
2019-01-24T06:59:38.965Z,100.00
2019-01-24T07:02:09.836Z,100.00
2019-01-24T07:04:40.758Z,100.00
2019-01-24T07:07:11.780Z,100.00
2019-01-24T07:09:42.726Z,100.00
2019-01-24T07:12:13.620Z,100.00
2019-01-24T07:14:44.491Z,100.00
2019-01-24T07:17:15.385Z,100.00
2019-01-24T07:19:46.264Z,100.00
2019-01-24T07:22:17.143Z,100.00
2019-01-24T07:24:48.064Z,100.00
2019-01-24T07:27:18.947Z,100.00
2019-01-24T07:29:49.831Z,100.00
2019-01-24T07:32:20.717Z,100.00
2019-01-24T07:34:51.711Z,100.00
2019-01-24T07:37:22.912Z,100.00
2019-01-24T07:39:53.801Z,100.00
2019-01-24T07:42:24.763Z,100.00
2019-01-24T07:44:55.621Z,100.00
2019-01-24T07:47:26.497Z,100.00
2019-01-24T07:49:57.388Z,100.00
2019-01-24T07:52:28.208Z,100.00
2019-01-24T07:54:59.062Z,100.00
2019-01-24T07:57:29.937Z,100.00
2019-01-24T08:00:00.835Z,100.00
2019-01-24T08:02:31.760Z,100.00
2019-01-24T08:05:02.825Z,100.00
2019-01-24T08:07:33.635Z,100.00
2019-01-24T08:10:07.468Z,100.00
2019-01-24T08:12:38.408Z,100.00
2019-01-24T08:15:12.074Z,100.00
2019-01-24T08:17:44.156Z,100.00
2019-01-24T08:20:20.321Z,100.00
2019-01-24T08:22:51.322Z,100.00
2019-01-24T08:25:22.258Z,100.00
2019-01-24T08:27:53.240Z,100.00
2019-01-24T08:30:26.364Z,100.00
2019-01-24T08:32:57.273Z,99.79
2019-01-24T08:35:28.205Z,99.39
2019-01-24T08:37:59.325Z,100.00
2019-01-24T08:40:30.170Z,99.59
2019-01-24T08:43:01.069Z,99.44
2019-01-24T08:45:32.002Z,99.00
2019-01-24T08:48:02.923Z,98.34
2019-01-24T08:50:33.783Z,97.31
2019-01-24T08:53:04.987Z,97.52
2019-01-24T08:55:37.866Z,96.83
2019-01-24T08:58:08.764Z,95.76
2019-01-24T09:00:39.630Z,95.33
2019-01-24T09:03:10.744Z,95.36
2019-01-24T09:05:41.692Z,95.26
2019-01-24T09:08:12.710Z,95.17
2019-01-24T09:10:43.576Z,95.18
2019-01-24T09:13:14.533Z,95.81
2019-01-24T09:15:45.431Z,96.13
2019-01-24T09:18:16.457Z,95.95
2019-01-24T09:20:47.373Z,94.15
2019-01-24T09:23:18.223Z,94.27
2019-01-24T09:25:49.060Z,94.57
2019-01-24T09:28:20.001Z,94.60
2019-01-24T09:30:50.838Z,93.86
2019-01-24T09:33:21.785Z,93.81
2019-01-24T09:35:52.697Z,93.96
2019-01-24T09:38:23.587Z,93.91
2019-01-24T09:40:54.442Z,94.31
2019-01-24T09:43:25.375Z,93.29
2019-01-24T09:45:56.300Z,92.88
2019-01-24T09:48:27.153Z,93.02
2019-01-24T09:50:58.032Z,92.04
2019-01-24T09:53:28.890Z,91.01
2019-01-24T09:55:59.818Z,91.10
2019-01-24T09:58:30.652Z,89.55
2019-01-24T10:01:01.492Z,89.87
2019-01-24T10:03:32.378Z,88.71
2019-01-24T10:06:03.579Z,89.47
2019-01-24T10:08:34.495Z,89.01
2019-01-24T10:11:05.466Z,89.17
2019-01-24T10:13:36.366Z,89.53
2019-01-24T10:16:07.481Z,89.50
2019-01-24T10:18:38.337Z,90.21
2019-01-24T10:21:09.197Z,90.37
2019-01-24T10:23:40.046Z,90.36
2019-01-24T10:26:11.045Z,89.92
2019-01-24T10:28:41.882Z,88.42
2019-01-24T10:31:12.829Z,87.12
2019-01-24T10:33:43.703Z,87.91
2019-01-24T10:36:14.719Z,84.85
2019-01-24T10:38:45.639Z,84.92
2019-01-24T10:41:16.551Z,84.54
2019-01-24T10:43:47.465Z,84.81
2019-01-24T10:46:18.359Z,84.01
2019-01-24T10:48:49.193Z,84.77
2019-01-24T10:51:20.073Z,84.03
2019-01-24T10:53:51.045Z,84.55
2019-01-24T10:56:21.976Z,85.31
2019-01-24T10:58:52.865Z,84.18
2019-01-24T11:01:23.806Z,84.77
2019-01-24T11:03:54.647Z,85.03
2019-01-24T11:06:25.521Z,84.30
2019-01-24T11:08:56.479Z,84.86
2019-01-24T11:11:27.469Z,83.78
2019-01-24T11:13:58.368Z,84.64
2019-01-24T11:16:29.259Z,84.83
2019-01-24T11:19:00.364Z,84.14
2019-01-24T11:21:31.314Z,83.17
2019-01-24T11:24:02.172Z,81.49
2019-01-24T11:26:33.076Z,79.67
2019-01-24T11:29:04.018Z,77.52
2019-01-24T11:31:34.912Z,78.05
2019-01-24T11:34:05.904Z,79.39
2019-01-24T11:36:36.729Z,79.65
2019-01-24T11:39:07.702Z,78.81
2019-01-24T11:41:38.624Z,77.12
2019-01-24T11:44:09.474Z,79.39
2019-01-24T11:46:40.332Z,80.17
2019-01-24T11:49:11.233Z,78.17
2019-01-24T11:51:42.141Z,78.47
2019-01-24T11:54:13.905Z,78.87
2019-01-24T11:56:45.015Z,76.63
2019-01-24T11:59:15.952Z,78.54
2019-01-24T12:01:46.847Z,81.03
2019-01-24T12:04:17.797Z,81.80
2019-01-24T12:06:48.660Z,82.62
2019-01-24T12:09:19.572Z,82.66
2019-01-24T12:11:50.417Z,82.90
2019-01-24T12:14:21.357Z,83.96
2019-01-24T12:16:52.208Z,84.22
2019-01-24T12:19:23.061Z,83.92
2019-01-24T12:21:56.374Z,84.54
2019-01-24T12:24:27.246Z,84.33
2019-01-24T12:26:58.083Z,84.97
2019-01-24T12:29:29.091Z,85.35
2019-01-24T12:31:59.972Z,85.99
2019-01-24T12:34:31.104Z,83.69
2019-01-24T12:37:01.984Z,84.11
2019-01-24T12:39:32.846Z,84.18
2019-01-24T12:42:03.712Z,83.04
2019-01-24T12:44:34.582Z,82.59
2019-01-24T12:47:05.557Z,80.98
2019-01-24T12:49:36.461Z,80.61
2019-01-24T12:52:07.317Z,80.79
2019-01-24T12:54:38.184Z,80.23
2019-01-24T12:57:09.040Z,80.19
2019-01-24T12:59:40.872Z,80.00
2019-01-24T13:02:11.790Z,79.88
2019-01-24T13:04:42.655Z,80.73
2019-01-24T13:07:18.407Z,82.19
2019-01-24T13:09:46.252Z,81.72
2019-01-24T13:12:17.148Z,82.14
2019-01-24T13:14:48.021Z,82.17
2019-01-24T13:17:18.888Z,82.57
2019-01-24T13:19:49.768Z,83.36
2019-01-24T13:22:20.667Z,82.75
2019-01-24T13:24:51.558Z,83.31
2019-01-24T13:27:22.406Z,83.98
2019-01-24T13:29:53.318Z,83.75
2019-01-24T13:32:24.156Z,82.87
2019-01-24T13:34:55.044Z,82.78
2019-01-24T13:37:26.176Z,83.88
2019-01-24T13:39:56.958Z,82.50
2019-01-24T13:42:27.936Z,84.26
2019-01-24T13:44:58.826Z,83.80
2019-01-24T13:47:29.700Z,83.98
2019-01-24T13:50:00.674Z,83.32
2019-01-24T13:52:31.565Z,82.80
2019-01-24T13:55:02.423Z,82.74
2019-01-24T13:57:33.349Z,83.54
2019-01-24T14:00:09.912Z,81.91
2019-01-24T14:02:41.633Z,82.16
2019-01-24T14:05:16.013Z,81.52
2019-01-24T14:07:48.568Z,80.01
2019-01-24T14:10:19.600Z,79.90
2019-01-24T14:12:50.681Z,80.46
2019-01-24T14:15:21.954Z,80.00
2019-01-24T14:17:52.970Z,79.50
2019-01-24T14:20:24.045Z,80.13
2019-01-24T14:22:54.909Z,80.36
2019-01-24T14:25:25.791Z,80.82
2019-01-24T14:27:56.641Z,81.03
2019-01-24T14:30:28.834Z,80.54
2019-01-24T14:32:59.782Z,80.18
2019-01-24T14:35:31.412Z,81.87
2019-01-24T14:38:02.344Z,79.51
2019-01-24T14:40:33.221Z,80.92
2019-01-24T14:43:04.303Z,81.68
2019-01-24T14:45:35.300Z,81.85
2019-01-24T14:48:06.600Z,81.34
2019-01-24T14:50:38.502Z,81.41
2019-01-24T14:53:09.451Z,82.10
2019-01-24T14:55:40.301Z,83.10
2019-01-24T14:58:11.164Z,83.67
2019-01-24T15:00:45.742Z,83.26
2019-01-24T15:03:16.684Z,83.95
2019-01-24T15:05:47.527Z,84.02
2019-01-24T15:08:18.658Z,84.06
2019-01-24T15:10:49.507Z,83.79
2019-01-24T15:13:20.433Z,82.71
2019-01-24T15:15:51.392Z,84.19
2019-01-24T15:18:22.226Z,83.57
2019-01-24T15:20:53.161Z,82.72
2019-01-24T15:23:24.018Z,83.21
2019-01-24T15:25:54.985Z,82.80
2019-01-24T15:28:25.927Z,81.84
2019-01-24T15:30:56.909Z,81.96
2019-01-24T15:33:29.048Z,82.38
2019-01-24T15:35:59.993Z,83.23
2019-01-24T15:38:30.846Z,81.90
2019-01-24T15:41:01.725Z,82.79
2019-01-24T15:43:32.665Z,82.78
2019-01-24T15:46:03.784Z,82.96
2019-01-24T15:48:34.619Z,83.11
2019-01-24T15:51:05.559Z,84.21
2019-01-24T15:53:36.498Z,83.97
2019-01-24T15:56:07.484Z,84.28
2019-01-24T15:58:38.556Z,83.14
2019-01-24T16:01:09.499Z,83.88
2019-01-24T16:03:40.565Z,84.17
2019-01-24T16:06:11.525Z,84.92
2019-01-24T16:08:42.393Z,83.61
2019-01-24T16:11:13.368Z,84.05
2019-01-24T16:13:44.318Z,83.68
2019-01-24T16:16:15.394Z,83.85
2019-01-24T16:18:46.410Z,84.74
2019-01-24T16:21:17.271Z,83.70
2019-01-24T16:23:48.105Z,84.02
2019-01-24T16:26:18.983Z,84.23
2019-01-24T16:28:49.845Z,85.04
2019-01-24T16:31:20.781Z,86.02
2019-01-24T16:33:51.636Z,85.78
2019-01-24T16:36:22.491Z,86.38
2019-01-24T16:38:53.342Z,86.83
2019-01-24T16:41:24.244Z,86.85
2019-01-24T16:43:55.092Z,87.39
2019-01-24T16:46:25.981Z,87.62
2019-01-24T16:48:56.856Z,88.63
2019-01-24T16:51:27.710Z,89.34
2019-01-24T16:53:58.615Z,89.33
2019-01-24T16:56:29.547Z,89.09
2019-01-24T16:59:00.420Z,89.68
2019-01-24T17:01:31.281Z,89.82
2019-01-24T17:04:02.116Z,90.58
2019-01-24T17:06:33.055Z,91.04
2019-01-24T17:09:05.438Z,91.89
2019-01-24T17:11:36.288Z,92.34
2019-01-24T17:14:07.297Z,92.59
2019-01-24T17:16:38.144Z,93.18
2019-01-24T17:19:08.993Z,94.29
2019-01-24T17:21:40.104Z,94.26
2019-01-24T17:24:10.978Z,95.00
2019-01-24T17:26:41.822Z,95.67
2019-01-24T17:29:12.675Z,95.93
2019-01-24T17:31:43.635Z,96.25
2019-01-24T17:34:14.484Z,96.72
2019-01-24T17:36:45.415Z,96.91
2019-01-24T17:39:16.368Z,97.32
2019-01-24T17:41:47.312Z,97.56
2019-01-24T17:44:18.172Z,97.93
2019-01-24T17:46:49.037Z,98.11
2019-01-24T17:49:19.893Z,98.58
2019-01-24T17:51:52.254Z,98.71
2019-01-24T17:54:23.176Z,99.10
2019-01-24T17:56:54.040Z,99.34
2019-01-24T17:59:24.895Z,99.83
2019-01-24T18:01:55.939Z,100.00
2019-01-24T18:04:26.811Z,100.00
2019-01-24T18:06:57.671Z,100.00
2019-01-24T18:09:30.153Z,100.00
2019-01-24T18:12:01.084Z,100.00
2019-01-24T18:14:31.952Z,100.00
2019-01-24T18:17:02.863Z,100.00
2019-01-24T18:19:33.700Z,100.00
2019-01-24T18:22:05.193Z,100.00
2019-01-24T18:24:36.129Z,100.00
2019-01-24T18:27:07.290Z,100.00
2019-01-24T18:29:38.230Z,100.00
2019-01-24T18:32:09.265Z,100.00
2019-01-24T18:34:41.762Z,100.00
2019-01-24T18:37:12.651Z,100.00
2019-01-24T18:39:43.611Z,100.00
2019-01-24T18:42:14.734Z,100.00
2019-01-24T18:44:46.224Z,100.00
2019-01-24T18:47:17.090Z,100.00
2019-01-24T18:49:47.989Z,100.00
2019-01-24T18:52:18.996Z,100.00
2019-01-24T18:54:49.866Z,100.00
2019-01-24T18:57:22.383Z,100.00
2019-01-24T18:59:53.185Z,100.00
2019-01-24T19:02:24.041Z,99.96
2019-01-24T19:04:55.017Z,100.00
2019-01-24T19:07:25.854Z,99.98
2019-01-24T19:09:56.738Z,100.00
2019-01-24T19:12:27.600Z,100.00
2019-01-24T19:14:58.503Z,100.00
2019-01-24T19:17:29.395Z,100.00
2019-01-24T19:20:00.305Z,100.00
2019-01-24T19:22:31.517Z,100.00
2019-01-24T19:25:02.578Z,100.00
2019-01-24T19:27:33.469Z,100.00
2019-01-24T19:30:07.628Z,100.00
2019-01-24T19:32:38.634Z,100.00
2019-01-24T19:35:09.920Z,100.00
2019-01-24T19:37:41.261Z,100.00
2019-01-24T19:40:18.141Z,100.00
2019-01-24T19:42:49.091Z,100.00
2019-01-24T19:45:27.481Z,100.00
2019-01-24T19:47:58.427Z,100.00
2019-01-24T19:50:31.076Z,100.00
2019-01-24T19:53:02.134Z,100.00
2019-01-24T19:55:33.205Z,100.00
2019-01-24T19:58:04.879Z,100.00
2019-01-24T20:00:36.751Z,100.00
2019-01-24T20:03:07.766Z,100.00
2019-01-24T20:05:38.733Z,100.00
2019-01-24T20:08:09.718Z,100.00
2019-01-24T20:10:40.599Z,100.00
2019-01-24T20:13:11.685Z,100.00
2019-01-24T20:15:42.545Z,100.00
2019-01-24T20:18:13.565Z,100.00
2019-01-24T20:20:44.416Z,100.00
2019-01-24T20:23:15.370Z,100.00
2019-01-24T20:25:46.238Z,100.00
2019-01-24T20:28:17.155Z,100.00
2019-01-24T20:30:48.094Z,100.00
2019-01-24T20:33:18.988Z,100.00
2019-01-24T20:35:52.203Z,100.00
2019-01-24T20:38:23.236Z,100.00
2019-01-24T20:40:54.138Z,100.00
2019-01-24T20:43:25.136Z,100.00
2019-01-24T20:45:56.065Z,100.00
2019-01-24T20:48:26.966Z,100.00
2019-01-24T20:50:57.819Z,100.00
2019-01-24T20:53:28.798Z,100.00
2019-01-24T20:55:59.641Z,100.00
2019-01-24T20:58:32.101Z,100.00
2019-01-24T21:01:03.193Z,100.00
2019-01-24T21:03:35.663Z,100.00
2019-01-24T21:06:06.628Z,100.00
2019-01-24T21:08:37.520Z,100.00
2019-01-24T21:11:08.460Z,100.00
2019-01-24T21:13:39.346Z,100.00
2019-01-24T21:16:10.219Z,100.00
2019-01-24T21:18:42.742Z,100.00
2019-01-24T21:21:13.764Z,100.00
2019-01-24T21:23:44.638Z,100.00
2019-01-24T21:26:15.618Z,100.00
2019-01-24T21:28:48.108Z,100.00
2019-01-24T21:31:19.041Z,100.00
2019-01-24T21:33:49.904Z,100.00
2019-01-24T21:36:20.807Z,100.00
2019-01-24T21:38:51.709Z,100.00
2019-01-24T21:41:22.568Z,100.00
2019-01-24T21:43:54.191Z,100.00
2019-01-24T21:46:25.068Z,100.00
2019-01-24T21:48:55.960Z,100.00
2019-01-24T21:51:26.894Z,100.00
2019-01-24T21:53:59.357Z,100.00
2019-01-24T21:56:30.235Z,100.00
2019-01-24T21:59:01.098Z,100.00
2019-01-24T22:01:32.066Z,100.00
2019-01-24T22:04:03.057Z,100.00
2019-01-24T22:06:33.924Z,100.00
2019-01-24T22:09:07.532Z,100.00
2019-01-24T22:11:38.470Z,100.00
2019-01-24T22:14:09.411Z,100.00
2019-01-24T22:16:40.248Z,100.00
2019-01-24T22:19:11.111Z,100.00
2019-01-24T22:21:41.998Z,100.00
2019-01-24T22:24:13.399Z,100.00
2019-01-24T22:26:44.330Z,100.00
2019-01-24T22:29:15.244Z,100.00
2019-01-24T22:31:46.131Z,100.00
2019-01-24T22:34:17.990Z,100.00
2019-01-24T22:36:50.494Z,100.00
2019-01-24T22:39:21.616Z,100.00
2019-01-24T22:41:52.496Z,100.00
2019-01-24T22:44:23.366Z,100.00
2019-01-24T22:46:54.233Z,100.00
2019-01-24T22:49:25.102Z,100.00
2019-01-24T22:51:56.000Z,100.00
2019-01-24T22:54:27.992Z,100.00
2019-01-24T22:56:58.936Z,100.00
2019-01-24T22:59:29.790Z,100.00
2019-01-24T23:02:00.760Z,100.00
2019-01-24T23:04:31.658Z,100.00
2019-01-24T23:07:02.526Z,100.00
2019-01-24T23:09:33.503Z,100.00
2019-01-24T23:12:04.784Z,100.00
2019-01-24T23:14:35.739Z,100.00
2019-01-24T23:17:06.785Z,100.00
2019-01-24T23:19:37.800Z,100.00
2019-01-24T23:22:08.890Z,100.00
2019-01-24T23:24:39.836Z,100.00
2019-01-24T23:27:10.744Z,100.00
2019-01-24T23:29:41.601Z,100.00
2019-01-24T23:32:12.642Z,100.00
2019-01-24T23:34:43.563Z,100.00
2019-01-24T23:37:15.681Z,100.00
2019-01-24T23:39:51.718Z,100.00
2019-01-24T23:42:19.130Z,100.00
2019-01-24T23:44:49.992Z,100.00
2019-01-24T23:47:20.908Z,100.00
2019-01-24T23:49:51.774Z,100.00
2019-01-24T23:52:22.655Z,100.00
2019-01-24T23:54:53.518Z,100.00
2019-01-24T23:57:24.416Z,100.00
2019-01-24T23:59:55.303Z,100.00
